createdAt,value
2023-02-17T00:00:56.086Z,0.00
2023-02-17T00:01:56.079Z,0.00
2023-02-17T00:02:56.061Z,0.00
2023-02-17T00:03:56.293Z,0.00
2023-02-17T00:04:56.094Z,0.00
2023-02-17T00:05:56.063Z,0.00
2023-02-17T00:06:56.069Z,0.00
2023-02-17T00:07:56.030Z,0.00
2023-02-17T00:08:56.045Z,0.00
2023-02-17T00:09:56.022Z,0.00
2023-02-17T00:10:56.010Z,0.00
2023-02-17T00:11:56.003Z,0.00
2023-02-17T00:12:55.999Z,0.00
2023-02-17T00:13:56.552Z,0.00
2023-02-17T00:14:56.034Z,0.00
2023-02-17T00:15:55.988Z,0.00
2023-02-17T00:16:55.969Z,0.00
2023-02-17T00:17:55.969Z,0.00
2023-02-17T00:18:55.977Z,0.00
2023-02-17T00:19:55.952Z,0.00
2023-02-17T00:20:55.947Z,0.00
2023-02-17T00:21:55.936Z,0.00
2023-02-17T00:22:55.936Z,0.00
2023-02-17T00:23:55.942Z,0.00
2023-02-17T00:24:55.918Z,0.00
2023-02-17T00:25:55.919Z,0.00
2023-02-17T00:26:55.928Z,0.00
2023-02-17T00:27:55.904Z,0.00
2023-02-17T00:28:55.910Z,0.00
2023-02-17T00:29:55.947Z,0.00
2023-02-17T00:30:55.949Z,0.00
2023-02-17T00:31:55.946Z,0.00
2023-02-17T00:32:55.865Z,0.00
2023-02-17T00:33:56.502Z,0.00
2023-02-17T00:34:55.849Z,0.00
2023-02-17T00:35:55.859Z,0.00
2023-02-17T00:36:55.840Z,0.00
2023-02-17T00:37:55.841Z,0.00
2023-02-17T00:38:55.827Z,0.00
2023-02-17T00:39:55.820Z,0.00
2023-02-17T00:40:55.826Z,0.00
2023-02-17T00:41:55.825Z,0.00
2023-02-17T00:42:55.798Z,0.00
2023-02-17T00:43:55.808Z,0.00
2023-02-17T00:44:55.807Z,0.00
2023-02-17T00:45:55.784Z,0.00
2023-02-17T00:46:55.770Z,0.00
2023-02-17T00:47:55.782Z,0.00
2023-02-17T00:48:55.823Z,0.00
2023-02-17T00:49:55.759Z,0.00
2023-02-17T00:50:55.754Z,0.00
2023-02-17T00:51:56.132Z,0.00
2023-02-17T00:52:55.737Z,0.00
2023-02-17T00:53:55.758Z,0.00
2023-02-17T00:54:55.957Z,0.00
2023-02-17T00:55:55.717Z,0.00
2023-02-17T00:56:55.766Z,0.00
2023-02-17T00:57:55.699Z,0.00
2023-02-17T00:58:55.818Z,0.00
2023-02-17T00:59:55.694Z,0.00
2023-02-17T01:00:55.678Z,0.00
2023-02-17T01:01:55.816Z,0.00
2023-02-17T01:02:55.659Z,0.00
2023-02-17T01:03:55.696Z,0.00
2023-02-17T01:04:55.671Z,0.00
2023-02-17T01:05:55.673Z,0.00
2023-02-17T01:06:56.211Z,0.00
2023-02-17T01:07:55.660Z,0.00
2023-02-17T01:08:55.646Z,0.00
2023-02-17T01:09:55.628Z,0.00
2023-02-17T01:10:55.617Z,0.00
2023-02-17T01:11:55.971Z,0.00
2023-02-17T01:12:55.640Z,0.00
2023-02-17T01:13:55.628Z,0.00
2023-02-17T01:14:55.584Z,0.00
2023-02-17T01:15:55.629Z,0.00
2023-02-17T01:16:55.565Z,0.00
2023-02-17T01:17:55.557Z,0.00
2023-02-17T01:18:55.898Z,0.00
2023-02-17T01:19:55.577Z,0.00
2023-02-17T01:20:56.098Z,0.00
2023-02-17T01:21:55.606Z,0.00
2023-02-17T01:22:55.524Z,0.00
2023-02-17T01:23:55.550Z,0.00
2023-02-17T01:24:55.514Z,0.00
2023-02-17T01:25:55.502Z,0.00
2023-02-17T01:26:55.757Z,0.00
2023-02-17T01:27:55.501Z,0.00
2023-02-17T01:28:56.004Z,0.00
2023-02-17T01:29:55.547Z,0.00
2023-02-17T01:30:55.519Z,0.00
2023-02-17T01:31:55.523Z,0.00
2023-02-17T01:32:55.500Z,0.00
2023-02-17T01:33:55.480Z,0.00
2023-02-17T01:34:55.480Z,0.00
2023-02-17T01:35:55.457Z,0.00
2023-02-17T01:36:56.232Z,0.00
2023-02-17T01:37:55.662Z,0.00
2023-02-17T01:38:55.414Z,0.00
2023-02-17T01:39:55.424Z,0.00
2023-02-17T01:40:55.395Z,0.00
2023-02-17T01:41:55.400Z,0.00
2023-02-17T01:42:55.389Z,0.00
2023-02-17T01:43:55.376Z,0.00
2023-02-17T01:44:55.391Z,0.00
2023-02-17T01:45:55.361Z,0.00
2023-02-17T01:46:55.742Z,0.00
2023-02-17T01:47:56.365Z,0.00
2023-02-17T01:48:56.254Z,0.00
2023-02-17T01:49:56.167Z,0.00
2023-02-17T01:50:55.334Z,0.00
2023-02-17T01:51:55.620Z,0.00
2023-02-17T01:52:55.501Z,0.00
2023-02-17T01:53:55.305Z,0.00
2023-02-17T01:54:55.454Z,0.00
2023-02-17T01:55:55.301Z,0.00
2023-02-17T01:56:55.746Z,0.00
2023-02-17T01:57:55.293Z,0.00
2023-02-17T01:58:55.738Z,0.00
2023-02-17T01:59:55.770Z,0.00
2023-02-17T02:00:55.374Z,0.00
2023-02-17T02:01:56.071Z,0.00
2023-02-17T02:02:56.083Z,0.00
2023-02-17T02:03:55.990Z,0.00
2023-02-17T02:04:55.990Z,0.00
2023-02-17T02:05:55.379Z,0.00
2023-02-17T02:06:56.065Z,0.00
2023-02-17T02:07:56.240Z,0.00
2023-02-17T02:08:55.360Z,0.00
2023-02-17T02:09:56.085Z,0.00
2023-02-17T02:10:55.868Z,0.00
2023-02-17T02:11:56.095Z,0.00
2023-02-17T02:12:55.870Z,0.00
2023-02-17T02:13:55.490Z,0.00
2023-02-17T02:14:55.271Z,0.00
2023-02-17T02:15:55.153Z,0.00
2023-02-17T02:16:55.206Z,0.00
2023-02-17T02:17:55.287Z,0.00
2023-02-17T02:18:55.145Z,0.00
2023-02-17T02:19:55.276Z,0.00
2023-02-17T02:20:55.520Z,0.00
2023-02-17T02:21:55.497Z,0.00
2023-02-17T02:22:55.163Z,0.00
2023-02-17T02:23:55.541Z,0.00
2023-02-17T02:24:55.124Z,0.00
2023-02-17T02:25:55.330Z,0.00
2023-02-17T02:26:55.152Z,0.00
2023-02-17T02:27:55.171Z,0.00
2023-02-17T02:28:55.077Z,0.00
2023-02-17T02:29:55.219Z,0.00
2023-02-17T02:30:55.063Z,0.00
2023-02-17T02:31:55.083Z,0.00
2023-02-17T02:32:55.068Z,0.00
2023-02-17T02:33:55.033Z,0.00
2023-02-17T02:34:55.074Z,0.00
2023-02-17T02:35:55.022Z,0.00
2023-02-17T02:36:55.192Z,0.00
2023-02-17T02:37:55.010Z,0.00
2023-02-17T02:38:55.001Z,0.00
2023-02-17T02:39:55.224Z,0.00
2023-02-17T02:40:54.986Z,0.00
2023-02-17T02:41:54.969Z,0.00
2023-02-17T02:42:54.979Z,0.00
2023-02-17T02:43:55.051Z,0.00
2023-02-17T02:44:54.974Z,0.00
2023-02-17T02:45:55.045Z,0.00
2023-02-17T02:46:54.967Z,0.00
2023-02-17T02:47:54.991Z,0.00
2023-02-17T02:48:54.937Z,0.00
2023-02-17T02:49:55.051Z,0.00
2023-02-17T02:50:54.918Z,0.00
2023-02-17T02:51:54.906Z,0.00
2023-02-17T02:52:54.924Z,0.00
2023-02-17T02:53:54.907Z,0.00
2023-02-17T02:54:54.930Z,0.00
2023-02-17T02:55:54.901Z,0.00
2023-02-17T02:56:54.908Z,0.00
2023-02-17T02:57:55.557Z,0.00
2023-02-17T02:58:55.558Z,0.00
2023-02-17T02:59:55.047Z,0.00
2023-02-17T03:00:54.944Z,0.00
2023-02-17T03:01:54.840Z,0.00
2023-02-17T03:02:55.587Z,0.00
2023-02-17T03:03:54.875Z,0.00
2023-02-17T03:04:54.860Z,0.00
2023-02-17T03:05:54.803Z,0.00
2023-02-17T03:06:55.005Z,0.00
2023-02-17T03:07:55.013Z,0.00
2023-02-17T03:08:54.822Z,0.00
2023-02-17T03:09:54.827Z,0.00
2023-02-17T03:10:54.817Z,0.00
2023-02-17T03:11:54.774Z,0.00
2023-02-17T03:12:54.842Z,0.00
2023-02-17T03:13:55.104Z,0.00
2023-02-17T03:14:54.881Z,0.00
2023-02-17T03:15:55.063Z,0.00
2023-02-17T03:16:55.074Z,0.00
2023-02-17T03:17:54.862Z,0.00
2023-02-17T03:18:54.883Z,0.00
2023-02-17T03:19:55.722Z,0.00
2023-02-17T03:20:55.296Z,0.00
2023-02-17T03:21:54.703Z,0.00
2023-02-17T03:22:55.309Z,0.00
2023-02-17T03:23:54.683Z,0.00
2023-02-17T03:24:55.542Z,0.00
2023-02-17T03:25:54.798Z,0.00
2023-02-17T03:26:54.723Z,0.00
2023-02-17T03:27:54.652Z,0.00
2023-02-17T03:28:54.664Z,0.00
2023-02-17T03:29:54.854Z,0.00
2023-02-17T03:30:54.671Z,0.00
2023-02-17T03:31:54.763Z,0.00
2023-02-17T03:32:54.747Z,0.00
2023-02-17T03:33:54.622Z,0.00
2023-02-17T03:34:54.610Z,0.00
2023-02-17T03:35:54.644Z,0.00
2023-02-17T03:36:54.790Z,0.00
2023-02-17T03:37:54.588Z,0.00
2023-02-17T03:38:54.591Z,0.00
2023-02-17T03:39:54.579Z,0.00
2023-02-17T03:40:54.609Z,0.00
2023-02-17T03:41:54.592Z,0.00
2023-02-17T03:42:54.558Z,0.00
2023-02-17T03:43:54.558Z,0.00
2023-02-17T03:44:54.549Z,0.00
2023-02-17T03:45:54.680Z,0.00
2023-02-17T03:46:54.537Z,0.00
2023-02-17T03:47:54.539Z,0.00
2023-02-17T03:48:54.524Z,0.00
2023-02-17T03:49:54.516Z,0.00
2023-02-17T03:50:54.522Z,0.00
2023-02-17T03:51:54.495Z,0.00
2023-02-17T03:52:54.500Z,0.00
2023-02-17T03:53:54.493Z,0.00
2023-02-17T03:54:55.960Z,0.00
2023-02-17T03:55:54.493Z,0.00
2023-02-17T03:56:54.505Z,0.00
2023-02-17T03:57:54.455Z,0.00
2023-02-17T03:58:54.455Z,0.00
2023-02-17T03:59:54.459Z,0.00
2023-02-17T04:00:54.461Z,0.00
2023-02-17T04:01:54.480Z,0.00
2023-02-17T04:02:54.440Z,0.00
2023-02-17T04:03:54.433Z,0.00
2023-02-17T04:04:54.403Z,0.00
2023-02-17T04:05:54.432Z,0.00
2023-02-17T04:06:54.401Z,0.00
2023-02-17T04:07:54.392Z,0.00
2023-02-17T04:08:54.390Z,0.00
2023-02-17T04:09:54.372Z,0.00
2023-02-17T04:10:54.393Z,0.00
2023-02-17T04:11:54.365Z,0.00
2023-02-17T04:12:54.352Z,0.00
2023-02-17T04:13:54.343Z,0.00
2023-02-17T04:14:54.359Z,0.00
2023-02-17T04:15:54.439Z,0.00
2023-02-17T04:16:55.061Z,0.00
2023-02-17T04:17:54.319Z,0.00
2023-02-17T04:18:54.313Z,0.00
2023-02-17T04:19:54.330Z,0.00
2023-02-17T04:20:54.361Z,0.00
2023-02-17T04:21:54.284Z,0.00
2023-02-17T04:22:54.286Z,0.00
2023-02-17T04:23:54.272Z,0.00
2023-02-17T04:24:54.266Z,0.00
2023-02-17T04:25:54.297Z,0.00
2023-02-17T04:26:54.260Z,0.00
2023-02-17T04:27:54.293Z,0.00
2023-02-17T04:28:54.236Z,0.00
2023-02-17T04:29:54.360Z,0.00
2023-02-17T04:30:54.417Z,0.00
2023-02-17T04:31:54.323Z,0.00
2023-02-17T04:32:54.214Z,0.00
2023-02-17T04:33:54.204Z,0.00
2023-02-17T04:34:54.208Z,0.00
2023-02-17T04:35:54.222Z,0.00
2023-02-17T04:36:54.194Z,0.00
2023-02-17T04:37:54.262Z,0.00
2023-02-17T04:38:54.204Z,0.00
2023-02-17T04:39:54.190Z,0.00
2023-02-17T04:40:54.208Z,0.00
2023-02-17T04:41:54.445Z,0.00
2023-02-17T04:42:54.164Z,0.00
2023-02-17T04:43:54.143Z,0.00
2023-02-17T04:44:54.135Z,0.00
2023-02-17T04:45:54.211Z,0.00
2023-02-17T04:46:54.157Z,0.00
2023-02-17T04:47:54.113Z,0.00
2023-02-17T04:48:54.116Z,0.00
2023-02-17T04:49:54.098Z,0.00
2023-02-17T04:50:54.118Z,0.00
2023-02-17T04:51:54.123Z,0.00
2023-02-17T04:52:54.106Z,0.00
2023-02-17T04:53:54.099Z,0.00
2023-02-17T04:54:54.076Z,0.00
2023-02-17T04:55:54.090Z,0.00
2023-02-17T04:56:54.070Z,0.00
2023-02-17T04:57:54.039Z,0.00
2023-02-17T04:58:54.060Z,0.00
2023-02-17T04:59:54.067Z,0.00
2023-02-17T05:00:54.073Z,0.00
2023-02-17T05:01:54.068Z,0.00
2023-02-17T05:02:54.017Z,0.00
2023-02-17T05:03:54.022Z,0.00
2023-02-17T05:04:54.062Z,0.00
2023-02-17T05:05:53.987Z,0.00
2023-02-17T05:06:53.989Z,0.00
2023-02-17T05:07:53.971Z,0.00
2023-02-17T05:08:53.974Z,0.00
2023-02-17T05:09:53.952Z,0.00
2023-02-17T05:10:53.969Z,0.00
2023-02-17T05:11:53.986Z,0.00
2023-02-17T05:12:53.941Z,0.00
2023-02-17T05:13:53.929Z,0.00
2023-02-17T05:14:53.940Z,0.00
2023-02-17T05:15:53.936Z,0.00
2023-02-17T05:16:53.935Z,0.00
2023-02-17T05:17:53.902Z,0.00
2023-02-17T05:18:53.902Z,0.00
2023-02-17T05:19:53.886Z,0.00
2023-02-17T05:20:53.879Z,0.00
2023-02-17T05:21:53.876Z,0.00
2023-02-17T05:22:53.869Z,0.00
2023-02-17T05:23:53.860Z,0.00
2023-02-17T05:24:53.865Z,0.00
2023-02-17T05:25:53.874Z,0.00
2023-02-17T05:26:53.885Z,0.00
2023-02-17T05:27:53.835Z,0.00
2023-02-17T05:28:53.836Z,0.00
2023-02-17T05:29:53.852Z,0.00
2023-02-17T05:30:53.844Z,0.00
2023-02-17T05:31:53.936Z,0.00
2023-02-17T05:32:53.834Z,0.00
2023-02-17T05:33:53.783Z,0.00
2023-02-17T05:34:53.792Z,0.00
2023-02-17T05:35:53.772Z,0.00
2023-02-17T05:36:54.227Z,0.00
2023-02-17T05:37:54.275Z,0.00
2023-02-17T05:38:53.753Z,0.00
2023-02-17T05:39:53.755Z,0.00
2023-02-17T05:40:54.244Z,0.00
2023-02-17T05:41:55.850Z,0.00
2023-02-17T05:42:53.764Z,0.00
2023-02-17T05:43:53.765Z,0.00
2023-02-17T05:44:53.725Z,0.00
2023-02-17T05:45:53.705Z,0.00
2023-02-17T05:46:54.601Z,0.00
2023-02-17T05:47:54.564Z,0.00
2023-02-17T05:48:53.685Z,0.00
2023-02-17T05:49:53.673Z,0.00
2023-02-17T05:50:53.669Z,0.00
2023-02-17T05:51:53.673Z,0.00
2023-02-17T05:52:53.664Z,0.00
2023-02-17T05:53:53.681Z,0.00
2023-02-17T05:54:53.656Z,0.00
2023-02-17T05:55:53.622Z,0.00
2023-02-17T05:56:53.864Z,0.00
2023-02-17T05:57:53.912Z,0.00
2023-02-17T05:58:53.914Z,0.00
2023-02-17T05:59:53.603Z,0.00
2023-02-17T06:00:53.602Z,0.00
2023-02-17T06:01:53.629Z,0.00
2023-02-17T06:02:53.681Z,0.00
2023-02-17T06:03:53.972Z,0.00
2023-02-17T06:04:53.716Z,0.00
2023-02-17T06:05:53.575Z,0.00
2023-02-17T06:06:53.596Z,0.00
2023-02-17T06:07:53.592Z,0.00
2023-02-17T06:08:53.778Z,0.00
2023-02-17T06:09:53.562Z,0.00
2023-02-17T06:10:53.726Z,0.00
2023-02-17T06:11:53.526Z,0.00
2023-02-17T06:12:53.805Z,0.00
2023-02-17T06:13:53.787Z,0.00
2023-02-17T06:14:53.626Z,0.00
2023-02-17T06:15:53.640Z,0.00
2023-02-17T06:16:54.135Z,0.00
2023-02-17T06:17:53.514Z,0.00
2023-02-17T06:18:54.255Z,0.00
2023-02-17T06:19:53.570Z,0.00
2023-02-17T06:20:53.462Z,0.00
2023-02-17T06:21:53.658Z,0.00
2023-02-17T06:22:53.483Z,0.00
2023-02-17T06:23:53.472Z,0.00
2023-02-17T06:24:54.344Z,0.00
2023-02-17T06:25:54.431Z,0.00
2023-02-17T06:26:54.095Z,0.00
2023-02-17T06:27:53.442Z,0.00
2023-02-17T06:28:53.412Z,0.00
2023-02-17T06:29:53.710Z,0.00
2023-02-17T06:30:53.502Z,0.00
2023-02-17T06:31:53.547Z,0.00
2023-02-17T06:32:53.414Z,0.00
2023-02-17T06:33:53.389Z,0.00
2023-02-17T06:34:53.365Z,0.00
2023-02-17T06:35:53.374Z,0.00
2023-02-17T06:36:53.371Z,0.00
2023-02-17T06:37:53.408Z,0.00
2023-02-17T06:38:53.338Z,0.00
2023-02-17T06:39:53.354Z,0.00
2023-02-17T06:40:53.368Z,0.00
2023-02-17T06:41:53.374Z,0.00
2023-02-17T06:42:53.324Z,0.00
2023-02-17T06:43:53.345Z,0.00
2023-02-17T06:44:53.345Z,0.00
2023-02-17T06:45:53.375Z,0.00
2023-02-17T06:46:53.336Z,5.62
2023-02-17T06:47:53.474Z,5.62
2023-02-17T06:48:53.316Z,5.62
2023-02-17T06:49:53.991Z,5.62
2023-02-17T06:50:53.367Z,5.62
2023-02-17T06:51:54.306Z,5.62
2023-02-17T06:52:53.599Z,5.62
2023-02-17T06:53:53.389Z,5.62
2023-02-17T06:54:53.231Z,5.62
2023-02-17T06:55:53.890Z,5.62
2023-02-17T06:56:53.211Z,5.62
2023-02-17T06:57:53.915Z,5.62
2023-02-17T06:58:53.209Z,5.62
2023-02-17T06:59:54.049Z,5.62
2023-02-17T07:00:53.191Z,5.62
2023-02-17T07:01:53.496Z,5.62
2023-02-17T07:02:53.732Z,5.62
2023-02-17T07:03:53.270Z,5.62
2023-02-17T07:04:53.152Z,5.62
2023-02-17T07:05:53.223Z,5.62
2023-02-17T07:06:53.149Z,5.62
2023-02-17T07:07:53.842Z,5.62
2023-02-17T07:08:53.139Z,11.25
2023-02-17T07:09:53.173Z,11.25
2023-02-17T07:10:53.113Z,11.25
2023-02-17T07:11:53.174Z,11.25
2023-02-17T07:12:53.513Z,11.25
2023-02-17T07:13:53.807Z,11.25
2023-02-17T07:14:53.815Z,16.88
2023-02-17T07:15:53.114Z,16.88
2023-02-17T07:16:53.208Z,16.88
2023-02-17T07:17:53.201Z,16.88
2023-02-17T07:18:53.169Z,16.88
2023-02-17T07:19:53.063Z,22.50
2023-02-17T07:20:53.095Z,22.50
2023-02-17T07:21:53.180Z,16.88
2023-02-17T07:22:53.274Z,16.88
2023-02-17T07:23:53.054Z,16.88
2023-02-17T07:24:53.399Z,22.50
2023-02-17T07:25:53.380Z,22.50
2023-02-17T07:26:53.068Z,22.50
2023-02-17T07:27:53.443Z,22.50
2023-02-17T07:28:53.604Z,22.50
2023-02-17T07:29:53.618Z,22.50
2023-02-17T07:30:53.324Z,22.50
2023-02-17T07:31:53.785Z,22.50
2023-02-17T07:32:53.736Z,28.12
2023-02-17T07:33:53.863Z,33.75
2023-02-17T07:34:53.053Z,28.12
2023-02-17T07:35:52.954Z,28.12
2023-02-17T07:36:53.259Z,28.12
2023-02-17T07:37:53.065Z,28.12
2023-02-17T07:38:52.959Z,28.12
2023-02-17T07:39:52.967Z,39.38
2023-02-17T07:40:53.079Z,45.00
2023-02-17T07:41:53.088Z,45.00
2023-02-17T07:42:53.186Z,45.00
2023-02-17T07:43:52.976Z,45.00
2023-02-17T07:44:53.205Z,39.38
2023-02-17T07:45:53.157Z,33.75
2023-02-17T07:46:53.243Z,39.38
2023-02-17T07:47:53.326Z,45.00
2023-02-17T07:48:53.002Z,50.62
2023-02-17T07:49:53.441Z,61.88
2023-02-17T07:50:53.551Z,67.50
2023-02-17T07:51:52.884Z,61.88
2023-02-17T07:52:52.842Z,61.88
2023-02-17T07:53:53.670Z,73.12
2023-02-17T07:54:52.862Z,78.75
2023-02-17T07:55:52.852Z,90.00
2023-02-17T07:56:52.865Z,78.75
2023-02-17T07:57:52.809Z,78.75
2023-02-17T07:58:52.885Z,73.12
2023-02-17T07:59:52.878Z,78.75
2023-02-17T08:00:52.832Z,78.75
2023-02-17T08:01:52.950Z,73.12
2023-02-17T08:02:52.765Z,78.75
2023-02-17T08:03:52.978Z,90.00
2023-02-17T08:04:52.922Z,73.12
2023-02-17T08:05:52.920Z,67.50
2023-02-17T08:06:52.925Z,84.38
2023-02-17T08:07:52.936Z,73.12
2023-02-17T08:08:52.761Z,78.75
2023-02-17T08:09:52.772Z,84.38
2023-02-17T08:10:52.951Z,90.00
2023-02-17T08:11:52.737Z,90.00
2023-02-17T08:12:53.071Z,112.50
2023-02-17T08:13:52.882Z,106.88
2023-02-17T08:14:53.091Z,106.88
2023-02-17T08:15:53.105Z,90.00
2023-02-17T08:16:52.745Z,95.62
2023-02-17T08:17:53.111Z,95.62
2023-02-17T08:18:52.907Z,90.00
2023-02-17T08:19:52.912Z,101.25
2023-02-17T08:20:53.151Z,112.50
2023-02-17T08:21:52.679Z,95.62
2023-02-17T08:22:52.641Z,84.38
2023-02-17T08:23:52.635Z,73.12
2023-02-17T08:24:52.662Z,73.12
2023-02-17T08:25:52.651Z,67.50
2023-02-17T08:26:53.186Z,67.50
2023-02-17T08:27:53.277Z,67.50
2023-02-17T08:28:52.883Z,61.88
2023-02-17T08:29:55.323Z,61.88
2023-02-17T08:30:52.928Z,61.88
2023-02-17T08:31:52.690Z,67.50
2023-02-17T08:32:52.593Z,67.50
2023-02-17T08:33:52.735Z,67.50
2023-02-17T08:34:52.631Z,61.88
2023-02-17T08:35:52.640Z,67.50
2023-02-17T08:36:52.629Z,67.50
2023-02-17T08:37:52.639Z,67.50
2023-02-17T08:38:52.677Z,73.12
2023-02-17T08:39:52.666Z,84.38
2023-02-17T08:40:52.711Z,84.38
2023-02-17T08:41:52.698Z,95.62
2023-02-17T08:42:52.723Z,84.38
2023-02-17T08:43:52.589Z,90.00
2023-02-17T08:44:52.732Z,90.00
2023-02-17T08:45:52.673Z,84.38
2023-02-17T08:46:52.528Z,90.00
2023-02-17T08:47:52.818Z,90.00
2023-02-17T08:48:52.507Z,95.62
2023-02-17T08:49:52.696Z,95.62
2023-02-17T08:50:52.508Z,101.25
2023-02-17T08:51:52.504Z,106.88
2023-02-17T08:52:52.463Z,123.75
2023-02-17T08:53:52.488Z,101.25
2023-02-17T08:54:52.689Z,101.25
2023-02-17T08:55:52.431Z,101.25
2023-02-17T08:56:52.466Z,112.50
2023-02-17T08:57:52.486Z,118.12
2023-02-17T08:58:52.406Z,106.88
2023-02-17T08:59:52.448Z,95.62
2023-02-17T09:00:52.369Z,118.12
2023-02-17T09:01:52.441Z,112.50
2023-02-17T09:02:52.373Z,112.50
2023-02-17T09:03:52.935Z,118.12
2023-02-17T09:04:52.508Z,123.75
2023-02-17T09:05:52.364Z,112.50
2023-02-17T09:06:52.331Z,129.38
2023-02-17T09:07:52.372Z,129.38
2023-02-17T09:08:52.312Z,123.75
2023-02-17T09:09:52.412Z,118.12
2023-02-17T09:10:52.452Z,118.12
2023-02-17T09:11:52.438Z,112.50
2023-02-17T09:12:52.278Z,123.75
2023-02-17T09:13:52.581Z,118.12
2023-02-17T09:14:52.319Z,123.75
2023-02-17T09:15:52.486Z,129.38
2023-02-17T09:16:52.589Z,123.75
2023-02-17T09:17:52.325Z,123.75
2023-02-17T09:18:52.288Z,146.25
2023-02-17T09:19:52.660Z,135.00
2023-02-17T09:20:52.361Z,135.00
2023-02-17T09:21:52.251Z,140.62
2023-02-17T09:22:52.568Z,151.88
2023-02-17T09:23:52.279Z,146.25
2023-02-17T09:24:52.242Z,146.25
2023-02-17T09:25:52.217Z,157.50
2023-02-17T09:26:52.280Z,185.62
2023-02-17T09:27:52.195Z,135.00
2023-02-17T09:28:52.302Z,140.62
2023-02-17T09:29:52.225Z,146.25
2023-02-17T09:30:52.253Z,140.62
2023-02-17T09:31:52.241Z,129.38
2023-02-17T09:32:52.183Z,123.75
2023-02-17T09:33:52.143Z,118.12
2023-02-17T09:34:52.148Z,118.12
2023-02-17T09:35:52.136Z,118.12
2023-02-17T09:36:52.128Z,157.50
2023-02-17T09:37:52.182Z,129.38
2023-02-17T09:38:52.104Z,146.25
2023-02-17T09:39:52.118Z,146.25
2023-02-17T09:40:52.129Z,151.88
2023-02-17T09:41:52.233Z,118.12
2023-02-17T09:42:52.082Z,140.62
2023-02-17T09:43:52.142Z,151.88
2023-02-17T09:44:52.141Z,163.12
2023-02-17T09:45:52.187Z,151.88
2023-02-17T09:47:01.394Z,123.75
2023-02-17T09:47:52.054Z,129.38
2023-02-17T09:48:52.052Z,185.62
2023-02-17T09:49:52.041Z,202.50
2023-02-17T09:50:52.095Z,180.00
2023-02-17T09:51:52.089Z,208.12
2023-02-17T09:52:52.077Z,225.00
2023-02-17T09:53:52.017Z,236.25
2023-02-17T09:54:52.011Z,225.00
2023-02-17T09:55:52.032Z,225.00
2023-02-17T09:56:52.050Z,236.25
2023-02-17T09:57:52.008Z,247.50
2023-02-17T09:58:52.480Z,247.50
2023-02-17T09:59:52.020Z,253.12
2023-02-17T10:00:51.977Z,281.25
2023-02-17T10:01:53.010Z,303.75
2023-02-17T10:02:51.936Z,275.62
2023-02-17T10:03:51.992Z,258.75
2023-02-17T10:04:52.032Z,281.25
2023-02-17T10:05:51.981Z,286.88
2023-02-17T10:06:51.904Z,286.88
2023-02-17T10:07:51.964Z,275.62
2023-02-17T10:08:51.925Z,253.12
2023-02-17T10:09:51.976Z,225.00
2023-02-17T10:10:51.900Z,281.25
2023-02-17T10:11:51.951Z,281.25
2023-02-17T10:12:52.025Z,286.88
2023-02-17T10:13:51.964Z,331.88
2023-02-17T10:14:52.810Z,354.38
2023-02-17T10:15:51.928Z,343.12
2023-02-17T10:16:51.894Z,326.25
2023-02-17T10:17:51.889Z,354.38
2023-02-17T10:18:51.889Z,371.25
2023-02-17T10:19:51.874Z,388.12
2023-02-17T10:20:51.858Z,388.12
2023-02-17T10:21:52.096Z,371.25
2023-02-17T10:22:51.871Z,337.50
2023-02-17T10:23:51.841Z,399.38
2023-02-17T10:24:51.780Z,382.50
2023-02-17T10:25:52.285Z,376.88
2023-02-17T10:26:51.848Z,371.25
2023-02-17T10:27:51.801Z,382.50
2023-02-17T10:28:51.810Z,343.12
2023-02-17T10:29:52.529Z,292.50
2023-02-17T10:30:52.643Z,371.25
2023-02-17T10:31:51.917Z,427.50
2023-02-17T10:32:51.845Z,416.25
2023-02-17T10:33:52.570Z,388.12
2023-02-17T10:34:52.629Z,382.50
2023-02-17T10:35:52.757Z,382.50
2023-02-17T10:36:51.801Z,326.25
2023-02-17T10:37:51.700Z,360.00
2023-02-17T10:38:51.695Z,393.75
2023-02-17T10:39:51.680Z,365.62
2023-02-17T10:40:52.552Z,421.88
2023-02-17T10:41:51.683Z,315.00
2023-02-17T10:42:51.674Z,371.25
2023-02-17T10:43:52.510Z,410.62
2023-02-17T10:44:51.790Z,438.75
2023-02-17T10:45:52.578Z,416.25
2023-02-17T10:46:52.530Z,382.50
2023-02-17T10:47:51.621Z,416.25
2023-02-17T10:48:51.622Z,410.62
2023-02-17T10:49:51.620Z,444.38
2023-02-17T10:50:52.612Z,461.25
2023-02-17T10:51:51.609Z,427.50
2023-02-17T10:52:51.598Z,506.25
2023-02-17T10:53:51.594Z,483.75
2023-02-17T10:54:51.654Z,511.88
2023-02-17T10:55:51.619Z,438.75
2023-02-17T10:56:51.609Z,478.12
2023-02-17T10:57:51.588Z,399.38
2023-02-17T10:58:51.573Z,376.88
2023-02-17T10:59:51.548Z,444.38
2023-02-17T11:00:51.709Z,421.88
2023-02-17T11:01:51.565Z,376.88
2023-02-17T11:02:51.562Z,410.62
2023-02-17T11:03:51.557Z,382.50
2023-02-17T11:04:51.514Z,416.25
2023-02-17T11:05:51.499Z,382.50
2023-02-17T11:06:51.516Z,326.25
2023-02-17T11:07:51.490Z,354.38
2023-02-17T11:08:51.556Z,410.62
2023-02-17T11:09:51.516Z,427.50
2023-02-17T11:10:51.622Z,416.25
2023-02-17T11:11:51.782Z,450.00
2023-02-17T11:12:51.912Z,450.00
2023-02-17T11:13:51.447Z,365.62
2023-02-17T11:14:51.481Z,433.12
2023-02-17T11:15:51.615Z,410.62
2023-02-17T11:16:51.491Z,438.75
2023-02-17T11:17:51.439Z,416.25
2023-02-17T11:18:51.433Z,444.38
2023-02-17T11:19:51.407Z,444.38
2023-02-17T11:20:51.428Z,410.62
2023-02-17T11:21:51.402Z,393.75
2023-02-17T11:22:51.395Z,371.25
2023-02-17T11:23:51.398Z,376.88
2023-02-17T11:24:51.370Z,388.12
2023-02-17T11:25:51.356Z,393.75
2023-02-17T11:26:51.398Z,348.75
2023-02-17T11:27:51.437Z,343.12
2023-02-17T11:28:51.388Z,416.25
2023-02-17T11:29:51.477Z,393.75
2023-02-17T11:30:51.490Z,455.62
2023-02-17T11:31:51.592Z,495.00
2023-02-17T11:32:51.375Z,523.12
2023-02-17T11:33:51.316Z,534.38
2023-02-17T11:34:51.677Z,562.50
2023-02-17T11:35:51.319Z,545.62
2023-02-17T11:36:51.737Z,624.38
2023-02-17T11:37:52.251Z,573.75
2023-02-17T11:38:51.750Z,630.00
2023-02-17T11:39:51.323Z,585.00
2023-02-17T11:40:51.619Z,568.12
2023-02-17T11:41:51.289Z,624.38
2023-02-17T11:42:51.280Z,630.00
2023-02-17T11:43:51.265Z,579.38
2023-02-17T11:44:52.227Z,624.38
2023-02-17T11:45:52.251Z,613.12
2023-02-17T11:46:52.210Z,585.00
2023-02-17T11:47:51.972Z,568.12
2023-02-17T11:48:52.159Z,540.00
2023-02-17T11:49:51.246Z,596.25
2023-02-17T11:50:52.238Z,607.50
2023-02-17T11:51:52.132Z,461.25
2023-02-17T11:52:51.178Z,500.62
2023-02-17T11:53:51.298Z,540.00
2023-02-17T11:54:51.178Z,489.38
2023-02-17T11:55:51.429Z,551.25
2023-02-17T11:56:51.196Z,523.12
2023-02-17T11:57:51.296Z,590.62
2023-02-17T11:58:51.152Z,540.00
2023-02-17T11:59:52.101Z,461.25
2023-02-17T12:00:51.879Z,450.00
2023-02-17T12:01:51.268Z,511.88
2023-02-17T12:02:51.157Z,506.25
2023-02-17T12:03:51.212Z,433.12
2023-02-17T12:04:51.137Z,500.62
2023-02-17T12:05:51.246Z,433.12
2023-02-17T12:06:51.135Z,478.12
2023-02-17T12:07:51.089Z,500.62
2023-02-17T12:08:51.077Z,466.88
2023-02-17T12:09:51.058Z,489.38
2023-02-17T12:10:51.058Z,568.12
2023-02-17T12:11:51.102Z,517.50
2023-02-17T12:12:51.049Z,540.00
2023-02-17T12:13:51.295Z,545.62
2023-02-17T12:14:51.073Z,607.50
2023-02-17T12:15:51.011Z,624.38
2023-02-17T12:16:51.069Z,663.75
2023-02-17T12:17:51.004Z,703.12
2023-02-17T12:18:51.000Z,736.88
2023-02-17T12:19:51.031Z,697.50
2023-02-17T12:20:50.981Z,691.88
2023-02-17T12:21:50.992Z,714.38
2023-02-17T12:22:51.012Z,708.75
2023-02-17T12:23:50.979Z,753.75
2023-02-17T12:24:50.967Z,748.12
2023-02-17T12:25:50.968Z,793.12
2023-02-17T12:26:50.952Z,781.88
2023-02-17T12:27:50.933Z,770.62
2023-02-17T12:28:50.954Z,753.75
2023-02-17T12:29:50.929Z,759.38
2023-02-17T12:30:51.038Z,708.75
2023-02-17T12:31:51.104Z,708.75
2023-02-17T12:32:50.913Z,680.62
2023-02-17T12:33:50.892Z,635.62
2023-02-17T12:34:50.911Z,630.00
2023-02-17T12:35:50.977Z,590.62
2023-02-17T12:36:50.898Z,579.38
2023-02-17T12:37:50.998Z,388.12
2023-02-17T12:38:50.934Z,495.00
2023-02-17T12:39:50.870Z,455.62
2023-02-17T12:40:50.852Z,399.38
2023-02-17T12:41:50.841Z,421.88
2023-02-17T12:42:50.870Z,348.75
2023-02-17T12:43:50.831Z,315.00
2023-02-17T12:44:50.831Z,315.00
2023-02-17T12:45:50.897Z,281.25
2023-02-17T12:46:50.819Z,303.75
2023-02-17T12:47:50.824Z,360.00
2023-02-17T12:48:50.793Z,320.62
2023-02-17T12:49:50.815Z,258.75
2023-02-17T12:50:50.793Z,241.88
2023-02-17T12:51:50.785Z,286.88
2023-02-17T12:52:50.832Z,326.25
2023-02-17T12:53:50.781Z,264.38
2023-02-17T12:54:50.860Z,286.88
2023-02-17T12:55:50.745Z,337.50
2023-02-17T12:56:50.745Z,303.75
2023-02-17T12:57:50.841Z,309.38
2023-02-17T12:58:50.733Z,320.62